Portada
METAR-TAF:

METAR-TAF

Aeroports :

Aeroport de Kirkenes-Hoybuktmon

Kirkenes, Noruega

latitud: 69-44N, longitud: 029-54E, altitud: 9 m

Observació

L'informe es va fer fa 24 minuts, a les 22:50 UTC
Vent 4 kt del Sud-Est
Temperatura 12°C
Humitat 76%
Pressió 1017 hPa
Visibilitat 10 km o més
sense núvols per sota de 1500 mi sense presència de cumulonimbus.

METAR: ENKR 082250Z 14004KT CAVOK 12/08 Q1017 RMK WIND 731FT 10010KT

Hora: 01:14 (23:14 UTC)

Pronòstic

L'informe es va fer fa 3 hores i 14 minuts, a les 20:00 UTC
Pronòstic vàlid del 08 a les 21 UTC al 09 a les 06 UTC
Vent 8 kt del Est/Sud-Est
Visibilitat 10 km o més
Escasses núvols a una alçada de 4000 ft

TAF: ENKR 082000Z 0821/0906 11008KT 9999 FEW040

Observacions i pronòstics meteorològics de més de 4000 aeroports (METAR i TAF).

Les estacions disponibles són els punts grocs i vermells al mapa.

Posi el ratolí al punt desitjat per veure el nom de l'estació.

Feu clic per veure les observacions i els pronòstics meteorològics.

Per canviar el mapa: feu clic els botons verds amb una creu de color negre per apropar; al botó verd amb un guió per allunyar la imatge; o en les fletxes verdes per a mapes adjacents.


METAR-TAF: